CCZ3 weather

Clarenville Airport
Clarenville, Newfoundland and Labrador, Canada

Public forecast

Using degrees Celsius for public forecast. Weather courtesy of forecast.io.

METAR (pilot weather report)

Closest report is Gander International Airport, 47.3 nm (87.6 km) NNW. Retrieved 2019/07/18 18:00 UTC (26 minutes ago):

CYQX 181800Z 29021G27KT 20SM FEW042 SCT055 SCT090 SCT210 20/08 A2955 RMK CU2SC1AC1CC1 AC TR CC TR SLP008 DENSITY ALT 1700FT

TAF (pilot weather forecast)

Closest forecast is Gander International Airport, 47.3 nm (87.6 km) NNW. Retrieved 2019/07/18 18:39 UTC (0 seconds ago):

TAF CYQX 181738Z 1818/1918 28015G25KT P6SM FEW040 SCT080 FM182000 28015G25KT P6SM SCT040 BKN060 TEMPO 1822/1904 P6SM -SHRA BKN040 OVC060 FM190400 28012G22KT P6SM FEW020 BKN040 FM191200 28015G25KT P6SM FEW040 RMK NXT FCST BY 190000Z